Barrett Junction (157) Station Data

Red Flag Warning: No
Fire Weather Zone: 250
SDGE Region: Mountain Empire
Lat/Lon: 32.601/-116.685

Observations

Time Wind Speed/Gust Temp(F) RH Fuel Moist Fuel Temp(F) Dewpt(F) Tmax(F) Tmin(F) Accum Precip 10-min Precip SL Press(mb)
6/22 5:00am 110 1 G 2 61° 82% - - 55° 68.2° 60.5° - - -
6/22 4:50am 30 0 G 1 61° 82% - - 55° 68.2° 60.5° - - -
6/22 4:40am 258 1 G 2 61° 82% - - 56° 68.2° 60.9° - - -
6/22 4:30am 233 1 G 2 61° 82% - - 55° 68.2° 60.9° - - -
6/22 4:20am 261 1 G 2 61° 81% - - 55° 68.2° 60.9° - - -
6/22 4:10am 249 1 G 2 61° 81% - - 56° 68.2° 61.2° - - -
6/22 4:00am 53 0 G 1 62° 81% - - 56° 68.2° 61.3° - - -
6/22 3:50am 180 0 G 1 62° 81% - - 56° 68.2° 61.3° - - -
6/22 3:40am 286 1 G 2 62° 80% - - 56° 68.2° 61.6° - - -
6/22 3:30am 265 2 G 3 62° 80% - - 56° 68.2° 61.8° - - -
6/22 3:20am 264 1 G 2 62° 79% - - 56° 68.2° 62° - - -
6/22 3:10am 90 1 G 2 63° 79% - - 56° 68.2° 62.4° - - -
6/22 3:00am 86 2 G 2 63° 78% - - 56° 68.2° 62.5° - - -
6/22 2:50am 131 0 G 1 63° 78% - - 56° 68.2° 62.7° - - -
6/22 2:40am 315 0 G 1 63° 77% - - 56° 68.2° 62.8° - - -
6/22 2:30am 274 1 G 1 64° 77% - - 56° 68.2° 63.3° - - -
6/22 2:20am 256 1 G 1 64° 77% - - 56° 68.2° 63.4° - - -
6/22 2:10am 259 2 G 3 64° 77% - - 56° 68.2° 63.5° - - -
6/22 2:00am 260 2 G 3 64° 75% - - 56° 68.2° 63.7° - - -
6/22 1:50am 147 1 G 2 65° 75% - - 57° 68.2° 64.3° - - -
6/22 1:40am 224 1 G 2 65° 74% - - 56° 68.2° 64.3° - - -
6/22 1:30am 75 1 G 2 65° 74% - - 57° 68.2° 64.8° - - -
6/22 1:20am 119 2 G 3 65° 74% - - 57° 68.2° 65° - - -
6/22 1:10am 114 2 G 3 65° 73% - - 57° 68.2° 65.1° - - -
6/22 1:00am 115 0 G 2 66° 72% - - 56° 68.2° 65.4° - - -
6/22 12:50am 82 1 G 2 66° 71% - - 57° 68.2° 65.8° - - -
6/22 12:40am 227 0 G 1 67° 71% - - 57° 68.2° 66° - - -
6/22 12:30am 246 2 G 4 66° 71% - - 57° 68.2° 66° - - -
6/22 12:20am 264 1 G 4 67° 69% - - 57° 68.2° 66.4° - - -
6/22 12:10am 112 1 G 2 68° 68% - - 57° 68.2° 67.3° - - -
6/22 12:00am 97 1 G 2 69° 66% - - 57° 98.9° 68° - - -
6/21 11:50pm 108 1 G 2 69° 67% - - 57° 98.9° 68.2° - - -
6/21 11:40pm 91 1 G 2 68° 66% - - 57° 98.9° 68.2° - - -
6/21 11:30pm 121 1 G 2 69° 64% - - 57° 98.9° 68.7° - - -
6/21 11:20pm 211 1 G 2 70° 63% - - 57° 98.9° 69.4° - - -
6/21 11:10pm 211 1 G 2 70° 62% - - 57° 98.9° 70.1° - - -
6/21 11:00pm 105 2 G 3 71° 62% - - 57° 98.9° 70.2° - - -
6/21 10:50pm 94 1 G 2 70° 63% - - 57° 98.9° 70.2° - - -
6/21 10:40pm 126 2 G 3 70° 63% - - 57° 98.9° 70.2° - - -
6/21 10:30pm 100 2 G 3 71° 62% - - 57° 98.9° 70.3° - - -
6/21 10:20pm 199 1 G 2 71° 61% - - 57° 98.9° 70.9° - - -
6/21 10:10pm 252 2 G 4 72° 59% - - 57° 98.9° 71.3° - - -
6/21 10:00pm 114 1 G 3 73° 57% - - 57° 98.9° 71.6° - - -
6/21 9:50pm 103 2 G 3 74° 56% - - 57° 98.9° 71.6° - - -
6/21 9:40pm 100 2 G 3 74° 56% - - 57° 98.9° 71.6° - - -
6/21 9:30pm 106 2 G 3 74° 55% - - 57° 98.9° 71.6° - - -
6/21 9:20pm 68 1 G 2 75° 54% - - 57° 98.9° 71.6° - - -
6/21 9:10pm 80 0 G 1 76° 53% - - 57° 98.9° 71.6° - - -
6/21 9:00pm 83 1 G 1 76° 53% - - 57° 98.9° 71.6° - - -
6/21 8:50pm 112 1 G 2 76° 52% - - 57° 98.9° 71.6° - - -
6/21 8:40pm 74 1 G 3 77° 51% - - 57° 98.9° 71.6° - - -
6/21 8:30pm 62 3 G 5 78° 50% - - 57° 98.9° 71.6° - - -
6/21 8:20pm 71 3 G 4 78° 48% - - 57° 98.9° 71.6° - - -
6/21 8:10pm 63 1 G 3 80° 46% - - 57° 98.9° 71.6° - - -
6/21 8:00pm 26 1 G 3 80° 45% - - 57° 98.9° 71.6° - - -
6/21 7:50pm 55 3 G 6 81° 44% - - 57° 98.9° 71.6° - - -
6/21 7:40pm 13 2 G 4 82° 42% - - 57° 98.9° 71.6° - - -
6/21 7:30pm 4 2 G 5 83° 40% - - 57° 98.9° 71.6° - - -
6/21 7:20pm 355 2 G 5 84° 40% - - 57° 98.9° 71.6° - - -
6/21 7:10pm 309 5 G 9 84° 39% - - 56° 98.9° 71.6° - - -
6/21 7:00pm 303 7 G 12 84° 38% - - 56° 98.9° 71.6° - - -
6/21 6:50pm 316 8 G 13 85° 37% - - 56° 98.9° 71.6° - - -
6/21 6:40pm 309 8 G 13 87° 34% - - 55° 98.9° 71.6° - - -
6/21 6:30pm 291 9 G 14 89° 31% - - 55° 98.9° 71.6° - - -
6/21 6:20pm 286 9 G 13 92° 25% - - 51° 98.9° 71.6° - - -
6/21 6:10pm 270 9 G 14 93° 20% - - 46° 98.9° 71.6° - - -
6/21 6:00pm 262 10 G 16 93° 21% - - 47° 98.9° 71.6° - - -
6/21 5:50pm 261 11 G 16 92° 24% - - 50° 98.9° 71.6° - - -
6/21 5:40pm 267 13 G 17 92° 23% - - 50° 98.9° 71.6° - - -
6/21 5:30pm 269 13 G 17 92° 24% - - 50° 98.9° 71.6° - - -
6/21 5:20pm 267 13 G 20 93° 23% - - 49° 98.9° 71.6° - - -
6/21 5:10pm 267 14 G 19 92° 23% - - 49° 98.9° 71.6° - - -
6/21 5:00pm 277 14 G 20 92° 26% - - 52° 98.9° 71.6° - - -
6/21 4:50pm 284 14 G 21 92° 27% - - 53° 98.9° 71.6° - - -
6/21 4:40pm 280 14 G 21 93° 27% - - 53° 98.9° 71.6° - - -
6/21 4:30pm 279 13 G 19 93° 25% - - 53° 98.9° 71.6° - - -
6/21 4:20pm 282 14 G 21 93° 26% - - 53° 98.9° 71.6° - - -
6/21 4:10pm 281 14 G 19 94° 25% - - 53° 98.9° 71.6° - - -
6/21 4:00pm 279 13 G 20 95° 25% - - 53° 98.9° 71.6° - - -
6/21 3:50pm 275 12 G 20 94° 25% - - 53° 98.9° 71.6° - - -
6/21 3:40pm 281 15 G 20 94° 26% - - 54° 98.9° 71.6° - - -
6/21 3:30pm 281 14 G 22 95° 26% - - 54° 98.9° 71.6° - - -
6/21 3:20pm 282 14 G 21 95° 24% - - 53° 98.9° 71.6° - - -
6/21 3:10pm 284 12 G 18 96° 22% - - 52° 98.9° 71.6° - - -
6/21 3:00pm 283 13 G 20 96° 23% - - 52° 98.9° 71.6° - - -
6/21 2:50pm 284 14 G 21 96° 23% - - 53° 98.9° 71.6° - - -
6/21 2:40pm 284 14 G 20 97° 23% - - 52° 98.9° 71.6° - - -
6/21 2:30pm 273 13 G 20 97° 22% - - 51° 98.9° 71.6° - - -
6/21 2:20pm 270 13 G 21 97° 21% - - 51° 98.9° 71.6° - - -
6/21 2:10pm 265 14 G 20 97° 21% - - 50° 98.9° 71.6° - - -
6/21 2:00pm 260 13 G 21 98° 20% - - 50° 98.9° 71.6° - - -
6/21 1:50pm 266 14 G 18 98° 20% - - 49° 98.9° 71.6° - - -
6/21 1:40pm 268 13 G 20 98° 19% - - 50° 98.9° 71.6° - - -
6/21 1:30pm 268 12 G 18 98° 19% - - 49° 98.5° 71.6° - - -
6/21 1:20pm 274 12 G 19 98° 20% - - 50° 98.5° 71.6° - - -
6/21 1:10pm 266 13 G 18 97° 20% - - 49° 98.5° 71.6° - - -
6/21 1:00pm 275 13 G 17 97° 20% - - 49° 98.5° 71.6° - - -
6/21 12:50pm 271 12 G 18 98° 20% - - 50° 98.5° 71.6° - - -
6/21 12:40pm 281 12 G 19 98° 20% - - 49° 98.3° 71.6° - - -
6/21 12:30pm 278 13 G 19 97° 19% - - 48° 98.3° 71.6° - - -
6/21 12:20pm 276 13 G 20 97° 19% - - 48° 98.3° 71.6° - - -
6/21 12:10pm 275 12 G 19 97° 19% - - 48° 97.6° 71.6° - - -
6/21 12:00pm 278 13 G 19 97° 19% - - 48° 97.5° 71.6° - - -
6/21 11:50am 274 13 G 18 97° 20% - - 49° 97.5° 71.6° - - -
6/21 11:40am 278 13 G 19 97° 19% - - 48° 97.5° 71.6° - - -
6/21 11:30am 287 12 G 16 97° 19% - - 48° 97.1° 71.6° - - -
6/21 11:20am 290 11 G 16 96° 19% - - 48° 96.6° 71.6° - - -
6/21 11:10am 288 11 G 15 96° 19% - - 47° 96.6° 71.6° - - -
6/21 11:00am 287 10 G 14 96° 19% - - 46° 96.6° 71.6° - - -
6/21 10:50am 287 8 G 14 96° 17% - - 45° 96.6° 71.6° - - -
6/21 10:40am 289 8 G 12 95° 16% - - 43° 96.5° 71.6° - - -
6/21 10:30am 317 3 G 10 95° 17% - - 44° 96.5° 71.6° - - -
6/21 10:20am 317 3 G 6 94° 18% - - 43° 94.3° 71.6° - - -
6/21 10:10am 318 2 G 5 93° 18% - - 43° 94° 71.6° - - -
6/21 10:00am 291 2 G 4 91° 22% - - 47° 92.2° 71.6° - - -
6/21 9:50am 289 3 G 5 89° 22% - - 45° 89.7° 71.6° - - -
6/21 9:40am 288 4 G 5 89° 22% - - 45° 89.2° 71.6° - - -
6/21 9:30am 292 2 G 5 88° 21% - - 44° 88.6° 71.6° - - -
6/21 9:20am 306 1 G 3 87° 22% - - 43° 87.5° 71.6° - - -
6/21 9:10am 298 2 G 4 86° 24% - - 44° 86.5° 71.6° - - -
6/21 9:00am 302 2 G 4 84° 27% - - 46° 85.1° 71.6° - - -
6/21 8:50am 294 2 G 4 83° 28% - - 46° 83.1° 71.6° - - -
6/21 8:40am 295 2 G 4 82° 29% - - 47° 82.6° 71.6° - - -
6/21 8:30am 289 1 G 3 81° 31% - - 47° 82.6° 71.6° - - -
6/21 8:20am 292 1 G 4 79° 34% - - 48° 79.8° 71.6° - - -
6/21 8:10am 299 2 G 4 79° 36% - - 50° 79.7° 71.6° - - -
6/21 8:00am 320 1 G 2 79° 36% - - 50° 79.7° 71.6° - - -
6/21 7:50am 302 1 G 2 77° 36% - - 49° 78.8° 71.6° - - -
6/21 7:40am 356 2 G 3 78° 36% - - 48° 78.8° 71.6° - - -
6/21 7:30am 36 2 G 7 78° 35% - - 48° 78.8° 71.6° - - -
6/21 7:20am 91 2 G 7 77° 34% - - 46° 77.6° 71.6° - - -
6/21 7:10am 96 4 G 7 76° 35% - - 46° 76.8° 71.6° - - -
6/21 7:00am 88 3 G 8 75° 35% - - 46° 76.8° 71.6° - - -
6/21 6:50am 109 6 G 9 76° 34% - - 45° 76.8° 71.6° - - -
6/21 6:40am 122 9 G 12 75° 34% - - 45° 76.8° 71.6° - - -
6/21 6:30am 121 8 G 11 74° 35% - - 45° 76.8° 71.6° - - -
6/21 6:20am 117 8 G 12 74° 35% - - 45° 76.8° 71.6° - - -
6/21 6:10am 120 7 G 11 74° 36% - - 45° 76.8° 71.6° - - -
6/21 6:00am 100 5 G 10 72° 40% - - 47° 76.8° 71.6° - - -
6/21 5:50am 111 6 G 10 73° 38% - - 46° 76.8° 72.3° - - -
6/21 5:40am 119 8 G 13 74° 37% - - 46° 76.8° 73.1° - - -
6/21 5:30am 120 9 G 14 74° 37% - - 46° 76.8° 73.1° - - -
6/21 5:20am 120 10 G 13 74° 37% - - 46° 76.8° 73.1° - - -
6/21 5:10am 119 12 G 15 74° 37% - - 46° 76.8° 73.1° - - -
6/21 5:00am 123 11 G 14 74° 37% - - 46° 76.8° 73.1° - - -
6/21 4:50am 118 10 G 13 74° 36% - - 46° 76.8° 73.1° - - -
6/21 4:40am 117 9 G 14 75° 35% - - 45° 76.8° 73.1° - - -
6/21 4:30am 120 10 G 13 74° 36% - - 45° 76.8° 73.1° - - -
6/21 4:20am 122 11 G 15 74° 36% - - 45° 76.8° 73.1° - - -
6/21 4:10am 120 11 G 15 74° 35% - - 45° 76.8° 73.1° - - -
6/21 4:00am 122 11 G 14 74° 35% - - 45° 76.8° 73.1° - - -
6/21 3:50am 119 10 G 14 74° 37% - - 46° 76.8° 73.1° - - -
6/21 3:40am 115 10 G 13 73° 37% - - 46° 76.8° 73.1° - - -
6/21 3:30am 118 11 G 14 73° 38% - - 46° 76.8° 73.1° - - -
6/21 3:20am 122 12 G 14 74° 37% - - 46° 76.8° 73.2° - - -
6/21 3:10am 121 11 G 14 74° 37% - - 46° 76.8° 73.3° - - -
6/21 3:00am 121 11 G 14 74° 37% - - 46° 76.8° 73.3° - - -
6/21 2:50am 122 11 G 13 74° 37% - - 46° 76.8° 73.7° - - -
6/21 2:40am 122 10 G 14 74° 37% - - 47° 76.8° 74° - - -
6/21 2:30am 122 11 G 13 74° 38% - - 47° 76.8° 74° - - -
6/21 2:20am 122 10 G 14 74° 38% - - 48° 76.8° 74° - - -
6/21 2:10am 122 11 G 15 74° 39% - - 48° 76.8° 74° - - -
6/21 2:00am 123 12 G 14 75° 40% - - 48° 76.8° 74.3° - - -
6/21 1:50am 122 12 G 17 75° 40% - - 49° 76.8° 74.3° - - -
6/21 1:40am 121 11 G 14 75° 40% - - 49° 76.8° 74.8° - - -
6/21 1:30am 120 12 G 16 75° 40% - - 49° 76.8° 74.9° - - -
6/21 1:20am 123 13 G 15 75° 40% - - 49° 76.8° 75° - - -
6/21 1:10am 126 12 G 15 76° 40% - - 50° 76.8° 75.3° - - -
6/21 1:00am 121 12 G 14 76° 41% - - 50° 76.8° 75.5° - - -
6/21 12:50am 120 11 G 14 76° 40% - - 50° 76.8° 75.8° - - -
6/21 12:40am 122 13 G 15 76° 40% - - 51° 76.8° 76° - - -
6/21 12:30am 124 13 G 15 76° 41% - - 51° 76.7° 76° - - -
6/21 12:20am 121 11 G 14 76° 42% - - 52° 76.7° 76° - - -
6/21 12:10am 119 10 G 13 77° 42% - - 52° 76.7° 76.3° - - -
6/21 12:00am 116 10 G 12 76° 43% - - 52° 101° 69.4° - - -
6/20 11:50pm 98 4 G 10 75° 47% - - 53° 101° 69.4° - - -
6/20 11:40pm 30 2 G 4 76° 47% - - 54° 101° 69.4° - - -
6/20 11:30pm 105 3 G 6 77° 43% - - 53° 101° 69.4° - - -
6/20 11:20pm 100 3 G 7 76° 44% - - 53° 101° 69.4° - - -
6/20 11:10pm 84 1 G 5 76° 47% - - 54° 101° 69.4° - - -
6/20 11:00pm 93 1 G 2 76° 46% - - 54° 101° 69.4° - - -
6/20 10:50pm 8 0 G 1 76° 45% - - 53° 101° 69.4° - - -
6/20 10:40pm 78 2 G 6 77° 42% - - 53° 101° 69.4° - - -
6/20 10:30pm 109 6 G 9 78° 40% - - 52° 101° 69.4° - - -
6/20 10:20pm 122 8 G 10 78° 41% - - 52° 101° 69.4° - - -
6/20 10:10pm 120 8 G 10 78° 40% - - 52° 101° 69.4° - - -
6/20 10:00pm 115 3 G 6 78° 41% - - 53° 101° 69.4° - - -
6/20 9:50pm 131 3 G 6 79° 40% - - 53° 101° 69.4° - - -
6/20 9:40pm 217 1 G 3 80° 39% - - 53° 101° 69.4° - - -
6/20 9:30pm 164 3 G 6 81° 38% - - 53° 101° 69.4° - - -
6/20 9:20pm 142 5 G 7 80° 38% - - 53° 101° 69.4° - - -
6/20 9:10pm 145 3 G 6 82° 36% - - 52° 101° 69.4° - - -
6/20 9:00pm 155 2 G 3 82° 35% - - 52° 101° 69.4° - - -
6/20 8:50pm 135 2 G 3 83° 35% - - 52° 101° 69.4° - - -
6/20 8:40pm 122 2 G 3 83° 35% - - 52° 101° 69.4° - - -
6/20 8:30pm 114 1 G 2 83° 34% - - 52° 101° 69.4° - - -
6/20 8:20pm 115 1 G 1 84° 33% - - 52° 101° 69.4° - - -
6/20 8:10pm 150 1 G 3 85° 32% - - 52° 101° 69.4° - - -
6/20 8:00pm 256 3 G 6 86° 31% - - 52° 101° 69.4° - - -
6/20 7:50pm 339 4 G 8 87° 30% - - 51° 101° 69.4° - - -
6/20 7:40pm 308 6 G 10 89° 27% - - 51° 101° 69.4° - - -
6/20 7:30pm 296 9 G 12 89° 27% - - 51° 101° 69.4° - - -
6/20 7:20pm 290 10 G 16 90° 26% - - 51° 101° 69.4° - - -
6/20 7:10pm 291 11 G 15 90° 27% - - 51° 101° 69.4° - - -
6/20 7:00pm 285 11 G 17 91° 27% - - 52° 101° 69.4° - - -
6/20 6:50pm 275 11 G 16 91° 27% - - 52° 101° 69.4° - - -
6/20 6:40pm 278 12 G 17 91° 26% - - 52° 101° 69.4° - - -
6/20 6:30pm 280 13 G 20 92° 27% - - 53° 101° 69.4° - - -
6/20 6:20pm 276 14 G 19 92° 26% - - 53° 101° 69.4° - - -
6/20 6:10pm 271 14 G 19 93° 25% - - 52° 101° 69.4° - - -
6/20 6:00pm 262 13 G 17 94° 25% - - 52° 101° 69.4° - - -